MSC Maeva — H9TF — position and weather

sailwx.info

Track history (hours):
 
Tides and Currents Weather Stations Pressure Air Temp Water Temp Dewpoint Dewpoint Depression Visibility Wind Speed Wind Dir Waves Ship Positions

MSC Maeva

Last reported at 2015-Apr-02 02:28 UTC. Time now 2015-Apr-02 04:27 UTC.
Position N 29°53' E 122°12'.

Type: Ship (hazmat cat A). MMSI: 371851000.

Date/timePositionNaut miles runAvg speedWind from/ knotsBaromVisibWave heightAir tempDewpointWater temp
2015-Apr-02 02:28N 29°53' E 122°12'0 0.0
2015-Apr-01 23:28N 29°53' E 122°12'0 0.1
2015-Apr-01 22:16N 29°53' E 122°12'0 0.2
2015-Apr-01 20:22N 29°53' E 122°13'0 0.0
2015-Apr-01 18:22N 29°53' E 122°13'0 0.2
2015-Apr-01 17:28N 29°53' E 122°13'0 0.1
2015-Apr-01 16:10N 29°53' E 122°13'0 0.1
2015-Apr-01 14:22N 29°53' E 122°12'0 0.0
2015-Apr-01 12:10N 29°53' E 122°12'0 0.0
2015-Apr-01 11:16N 29°53' E 122°12'0 0.1
2015-Apr-01 06:10N 29°53' E 122°13'2 1.1
2015-Apr-01 04:33N 29°51' E 122°12'5 5.2
2015-Apr-01 03:31N 29°48' E 122°07'0 0.1
2015-Apr-01 02:22N 29°48' E 122°07'0 0.0
2015-Apr-01 00:19N 29°48' E 122°07'0 0.1
2015-Mar-31 20:19N 29°48' E 122°06'0 0.0
2015-Mar-31 18:31N 29°48' E 122°06'0 0.1
2015-Mar-31 17:22N 29°48' E 122°07'0 0.1
2015-Mar-31 15:25N 29°48' E 122°07'0 0.1
2015-Mar-31 13:07N 29°48' E 122°07'0 0.0
2015-Mar-31 12:30N 29°48' E 122°07'0 0.0
2015-Mar-31 11:27N 29°48' E 122°07'0 0.1
2015-Mar-31 06:05N 29°48' E 122°07'0 0.0
2015-Mar-31 02:05N 29°48' E 122°07'0 0.0
2015-Mar-30 22:25N 29°48' E 122°07'0 0.0
2015-Mar-30 20:25N 29°48' E 122°07'0 0.0
2015-Mar-30 18:22N 29°48' E 122°07'0 0.0
2015-Mar-30 17:13N 29°48' E 122°07'0 0.0
2015-Mar-30 10:07N 29°48' E 122°07'0 0.0
2015-Mar-30 08:07N 29°48' E 122°07'0 0.0
2015-Mar-30 07:28N 29°48' E 122°07'0 0.0
2015-Mar-30 06:25N 29°48' E 122°07'0 0.0
2015-Mar-30 04:31N 29°48' E 122°07'0 0.0
2015-Mar-30 02:25N 29°48' E 122°07'1 0.1
2015-Mar-29 22:19N 29°48' E 122°07'0 0.1
2015-Mar-29 19:31N 29°48' E 122°06'0 0.1
2015-Mar-29 18:31N 29°48' E 122°06'0 0.0
2015-Mar-29 17:19N 29°48' E 122°06'0 0.1
2015-Mar-29 16:22N 29°48' E 122°06'0 0.1
2015-Mar-29 14:28N 29°48' E 122°06'2 1.0
2015-Mar-29 12:33N 29°48' E 122°09'1 0.7
2015-Mar-29 11:19N 29°48' E 122°10'0 0.0
2015-Mar-29 10:13N 29°48' E 122°10'0 0.0
2015-Mar-29 09:25N 29°48' E 122°10'0 0.0
2015-Mar-29 08:25N 29°48' E 122°10'0 0.0
2015-Mar-29 07:07N 29°48' E 122°10'0 0.0
2015-Mar-29 06:31N 29°48' E 122°10'0 0.0
2015-Mar-29 05:31N 29°48' E 122°10'0 0.0
2015-Mar-29 04:31N 29°48' E 122°10'0 0.0
2015-Mar-29 03:25N 29°48' E 122°10'0 0.0
2015-Mar-29 02:25N 29°48' E 122°10'0 0.0
2015-Mar-29 01:24N 29°48' E 122°10'0 0.0
2015-Mar-29 00:30N 29°48' E 122°10'0 0.0
2015-Mar-28 23:30N 29°48' E 122°10'0 0.0
2015-Mar-28 22:30N 29°48' E 122°10'0 0.0
2015-Mar-28 21:30N 29°48' E 122°10'0 0.0
2015-Mar-28 20:12N 29°48' E 122°10'0 0.0
2015-Mar-28 19:30N 29°48' E 122°10'0 0.0
2015-Mar-28 18:30N 29°48' E 122°10'0 0.0
2015-Mar-28 17:30N 29°48' E 122°10'0 0.0
2015-Mar-28 16:24N 29°48' E 122°10'0 0.0
2015-Mar-28 15:12N 29°48' E 122°10'0 0.0
2015-Mar-28 14:30N 29°48' E 122°10'0 0.0
2015-Mar-28 13:30N 29°48' E 122°10'0 0.0
2015-Mar-28 12:18N 29°48' E 122°10'0 0.0
2015-Mar-28 11:30N 29°48' E 122°10'0 0.0
2015-Mar-28 10:24N 29°48' E 122°10'0 0.0
2015-Mar-28 09:24N 29°48' E 122°10'0 0.0
2015-Mar-28 08:24N 29°48' E 122°10'0 0.0
2015-Mar-28 07:24N 29°48' E 122°10'0 0.0
2015-Mar-28 06:12N 29°48' E 122°10'0 0.0
2015-Mar-28 05:12N 29°48' E 122°10'0 0.0
2015-Mar-28 02:30N 29°48' E 122°10'0 0.0
2015-Mar-28 01:18N 29°48' E 122°10'0 0.0
2015-Mar-28 00:24N 29°48' E 122°10'0 0.0
2015-Mar-27 23:24N 29°48' E 122°10'0 0.0
2015-Mar-27 22:18N 29°48' E 122°10'0 0.0
2015-Mar-27 21:30N 29°48' E 122°10'0 0.0
2015-Mar-27 20:12N 29°48' E 122°10'0 0.0
2015-Mar-27 19:24N 29°48' E 122°10'0 0.0
2015-Mar-27 18:24N 29°48' E 122°10'0 0.0
2015-Mar-27 16:29N 29°48' E 122°10'0 0.0
2015-Mar-27 15:29N 29°48' E 122°10'0 0.0
2015-Mar-27 14:29N 29°48' E 122°10'0 0.0
2015-Mar-27 13:32N 29°48' E 122°10'0 0.0
2015-Mar-27 11:17N 29°48' E 122°10'0 0.0
2015-Mar-27 10:23N 29°48' E 122°10'0 0.0
2015-Mar-27 09:23N 29°48' E 122°10'0 0.0
2015-Mar-27 08:11N 29°48' E 122°10'0 0.0
2015-Mar-27 07:29N 29°48' E 122°10'0 0.0
2015-Mar-27 06:29N 29°48' E 122°10'0 0.0
2015-Mar-27 05:29N 29°48' E 122°10'0 0.0
2015-Mar-27 04:29N 29°48' E 122°10'0 0.0
2015-Mar-27 03:17N 29°48' E 122°10'0 0.0
2015-Mar-27 02:17N 29°48' E 122°10'0 0.0
2015-Mar-27 01:29N 29°48' E 122°10'0 0.0
2015-Mar-27 00:29N 29°48' E 122°10'0 0.0
2015-Mar-26 23:29N 29°48' E 122°10'0 0.0
2015-Mar-26 21:29N 29°48' E 122°10'0 0.0
2015-Mar-26 20:11N 29°48' E 122°10'0 0.0
2015-Mar-26 07:28N 29°48' E 122°10'0 0.0
2015-Mar-26 06:10N 29°48' E 122°10'0 0.0
2015-Mar-26 05:28N 29°48' E 122°10'0 0.0
2015-Mar-26 04:16N 29°48' E 122°10'0 0.0
2015-Mar-26 03:22N 29°48' E 122°10'0 0.0
2015-Mar-26 02:10N 29°48' E 122°10'0 0.0
2015-Mar-26 01:28N 29°48' E 122°10'0 0.0
2015-Mar-26 00:10N 29°48' E 122°10'0 0.0
2015-Mar-25 23:22N 29°48' E 122°10'0 0.0
2015-Mar-25 22:28N 29°48' E 122°10'0 0.0
2015-Mar-25 21:10N 29°48' E 122°10'0 0.0
2015-Mar-25 20:28N 29°48' E 122°10'0 0.0
2015-Mar-25 00:34N 29°48' E 122°10'0 0.0
2015-Mar-24 23:22N 29°48' E 122°10'0 0.0
2015-Mar-24 22:33N 29°48' E 122°10'0 0.0
2015-Mar-24 21:33N 29°48' E 122°10'0 0.0
2015-Mar-24 20:33N 29°48' E 122°10'0 0.0
2015-Mar-24 19:21N 29°48' E 122°10'0 0.0
2015-Mar-24 18:33N 29°48' E 122°10'0 0.0
2015-Mar-24 17:33N 29°48' E 122°10'0 0.0
2015-Mar-24 16:33N 29°48' E 122°10'0 0.0
2015-Mar-24 15:27N 29°48' E 122°10'0 0.0
2015-Mar-24 14:09N 29°48' E 122°10'0 0.0
2015-Mar-24 13:15N 29°48' E 122°10'0 0.0
2015-Mar-24 12:33N 29°48' E 122°10'0 0.0
2015-Mar-24 11:21N 29°48' E 122°10'0 0.0
2015-Mar-24 10:27N 29°48' E 122°10'0 0.0
2015-Mar-24 09:27N 29°48' E 122°10'0 0.0
2015-Mar-24 08:33N 29°48' E 122°10'0 0.0
2015-Mar-24 07:33N 29°48' E 122°10'0 0.0
2015-Mar-24 06:33N 29°48' E 122°10'0 0.0
2015-Mar-24 05:33N 29°48' E 122°10'0 0.0
2015-Mar-24 04:33N 29°48' E 122°10'0 0.0
2015-Mar-24 03:09N 29°48' E 122°10'0 0.0
2015-Mar-24 02:15N 29°48' E 122°10'0 0.0
2015-Mar-24 01:15N 29°48' E 122°10'0 0.0
2015-Mar-24 00:33N 29°48' E 122°10'0 0.0
2015-Mar-23 23:33N 29°48' E 122°10'0 0.0
2015-Mar-23 22:21N 29°48' E 122°10'0 0.0
2015-Mar-23 21:09N 29°48' E 122°10'0 0.0
2015-Mar-23 20:27N 29°48' E 122°10'0 0.0
2015-Mar-23 19:33N 29°48' E 122°10'0 0.0
2015-Mar-23 18:21N 29°48' E 122°10'0 0.0
2015-Mar-23 17:33N 29°48' E 122°10'0 0.0
2015-Mar-23 16:33N 29°48' E 122°10'0 0.0
2015-Mar-23 14:33N 29°48' E 122°10'0 0.0
2015-Mar-23 13:12N 29°48' E 122°10'0 0.0
2015-Mar-23 12:26N 29°48' E 122°10'0 0.0
2015-Mar-23 11:32N 29°48' E 122°10'0 0.0
2015-Mar-23 10:32N 29°48' E 122°10'0 0.0
2015-Mar-23 09:26N 29°48' E 122°10'0 0.0
2015-Mar-23 08:32N 29°48' E 122°10'0 0.0
2015-Mar-23 07:32N 29°48' E 122°10'0 0.0
2015-Mar-23 06:20N 29°48' E 122°10'0 0.0
2015-Mar-23 05:32N 29°48' E 122°10'0 0.0
2015-Mar-23 04:20N 29°48' E 122°10'0 0.2
2015-Mar-23 03:32N 29°48' E 122°09'3 2.6
2015-Mar-23 02:33N 29°47' E 122°07'  
Track history (hours):
 
Tides and Currents Weather Stations Pressure Air Temp Water Temp Dewpoint Dewpoint Depression Visibility Wind Speed Wind Dir Waves Ship Positions

MSC Maeva

Last reported at 2015-Apr-02 02:28 UTC. Time now 2015-Apr-02 04:27 UTC.
Position N 29°53' E 122°12'.

Type: Ship (hazmat cat A). MMSI: 371851000.

Date/timePositionNaut miles runAvg speedWind from/ knotsBaromVisibWave heightAir tempDewpointWater temp
2015-Apr-02 02:28N 29°53' E 122°12'0 0.0
2015-Apr-01 23:28N 29°53' E 122°12'0 0.1
2015-Apr-01 22:16N 29°53' E 122°12'0 0.2
2015-Apr-01 20:22N 29°53' E 122°13'0 0.0
2015-Apr-01 18:22N 29°53' E 122°13'0 0.2
2015-Apr-01 17:28N 29°53' E 122°13'0 0.1
2015-Apr-01 16:10N 29°53' E 122°13'0 0.1
2015-Apr-01 14:22N 29°53' E 122°12'0 0.0
2015-Apr-01 12:10N 29°53' E 122°12'0 0.0
2015-Apr-01 11:16N 29°53' E 122°12'0 0.1
2015-Apr-01 06:10N 29°53' E 122°13'2 1.1
2015-Apr-01 04:33N 29°51' E 122°12'5 5.2
2015-Apr-01 03:31N 29°48' E 122°07'0 0.1
2015-Apr-01 02:22N 29°48' E 122°07'0 0.0
2015-Apr-01 00:19N 29°48' E 122°07'0 0.1
2015-Mar-31 20:19N 29°48' E 122°06'0 0.0
2015-Mar-31 18:31N 29°48' E 122°06'0 0.1
2015-Mar-31 17:22N 29°48' E 122°07'0 0.1
2015-Mar-31 15:25N 29°48' E 122°07'0 0.1
2015-Mar-31 13:07N 29°48' E 122°07'0 0.0
2015-Mar-31 12:30N 29°48' E 122°07'0 0.0
2015-Mar-31 11:27N 29°48' E 122°07'0 0.1
2015-Mar-31 06:05N 29°48' E 122°07'0 0.0
2015-Mar-31 02:05N 29°48' E 122°07'0 0.0
2015-Mar-30 22:25N 29°48' E 122°07'0 0.0
2015-Mar-30 20:25N 29°48' E 122°07'0 0.0
2015-Mar-30 18:22N 29°48' E 122°07'0 0.0
2015-Mar-30 17:13N 29°48' E 122°07'0 0.0
2015-Mar-30 10:07N 29°48' E 122°07'0 0.0
2015-Mar-30 08:07N 29°48' E 122°07'0 0.0
2015-Mar-30 07:28N 29°48' E 122°07'0 0.0
2015-Mar-30 06:25N 29°48' E 122°07'0 0.0
2015-Mar-30 04:31N 29°48' E 122°07'0 0.0
2015-Mar-30 02:25N 29°48' E 122°07'1 0.1
2015-Mar-29 22:19N 29°48' E 122°07'0 0.1
2015-Mar-29 19:31N 29°48' E 122°06'0 0.1
2015-Mar-29 18:31N 29°48' E 122°06'0 0.0
2015-Mar-29 17:19N 29°48' E 122°06'0 0.1
2015-Mar-29 16:22N 29°48' E 122°06'0 0.1
2015-Mar-29 14:28N 29°48' E 122°06'2 1.0
2015-Mar-29 12:33N 29°48' E 122°09'1 0.7
2015-Mar-29 11:19N 29°48' E 122°10'0 0.0
2015-Mar-29 10:13N 29°48' E 122°10'0 0.0
2015-Mar-29 09:25N 29°48' E 122°10'0 0.0
2015-Mar-29 08:25N 29°48' E 122°10'0 0.0
2015-Mar-29 07:07N 29°48' E 122°10'0 0.0
2015-Mar-29 06:31N 29°48' E 122°10'0 0.0
2015-Mar-29 05:31N 29°48' E 122°10'0 0.0
2015-Mar-29 04:31N 29°48' E 122°10'0 0.0
2015-Mar-29 03:25N 29°48' E 122°10'0 0.0
2015-Mar-29 02:25N 29°48' E 122°10'0 0.0
2015-Mar-29 01:24N 29°48' E 122°10'0 0.0
2015-Mar-29 00:30N 29°48' E 122°10'0 0.0
2015-Mar-28 23:30N 29°48' E 122°10'0 0.0
2015-Mar-28 22:30N 29°48' E 122°10'0 0.0
2015-Mar-28 21:30N 29°48' E 122°10'0 0.0
2015-Mar-28 20:12N 29°48' E 122°10'0 0.0
2015-Mar-28 19:30N 29°48' E 122°10'0 0.0
2015-Mar-28 18:30N 29°48' E 122°10'0 0.0
2015-Mar-28 17:30N 29°48' E 122°10'0 0.0
2015-Mar-28 16:24N 29°48' E 122°10'0 0.0
2015-Mar-28 15:12N 29°48' E 122°10'0 0.0
2015-Mar-28 14:30N 29°48' E 122°10'0 0.0
2015-Mar-28 13:30N 29°48' E 122°10'0 0.0
2015-Mar-28 12:18N 29°48' E 122°10'0 0.0
2015-Mar-28 11:30N 29°48' E 122°10'0 0.0
2015-Mar-28 10:24N 29°48' E 122°10'0 0.0
2015-Mar-28 09:24N 29°48' E 122°10'0 0.0
2015-Mar-28 08:24N 29°48' E 122°10'0 0.0
2015-Mar-28 07:24N 29°48' E 122°10'0 0.0
2015-Mar-28 06:12N 29°48' E 122°10'0 0.0
2015-Mar-28 05:12N 29°48' E 122°10'0 0.0
2015-Mar-28 02:30N 29°48' E 122°10'0 0.0
2015-Mar-28 01:18N 29°48' E 122°10'0 0.0
2015-Mar-28 00:24N 29°48' E 122°10'0 0.0
2015-Mar-27 23:24N 29°48' E 122°10'0 0.0
2015-Mar-27 22:18N 29°48' E 122°10'0 0.0
2015-Mar-27 21:30N 29°48' E 122°10'0 0.0
2015-Mar-27 20:12N 29°48' E 122°10'0 0.0
2015-Mar-27 19:24N 29°48' E 122°10'0 0.0
2015-Mar-27 18:24N 29°48' E 122°10'0 0.0
2015-Mar-27 16:29N 29°48' E 122°10'0 0.0
2015-Mar-27 15:29N 29°48' E 122°10'0 0.0
2015-Mar-27 14:29N 29°48' E 122°10'0 0.0
2015-Mar-27 13:32N 29°48' E 122°10'0 0.0
2015-Mar-27 11:17N 29°48' E 122°10'0 0.0
2015-Mar-27 10:23N 29°48' E 122°10'0 0.0
2015-Mar-27 09:23N 29°48' E 122°10'0 0.0
2015-Mar-27 08:11N 29°48' E 122°10'0 0.0
2015-Mar-27 07:29N 29°48' E 122°10'0 0.0
2015-Mar-27 06:29N 29°48' E 122°10'0 0.0
2015-Mar-27 05:29N 29°48' E 122°10'0 0.0
2015-Mar-27 04:29N 29°48' E 122°10'0 0.0
2015-Mar-27 03:17N 29°48' E 122°10'0 0.0
2015-Mar-27 02:17N 29°48' E 122°10'0 0.0
2015-Mar-27 01:29N 29°48' E 122°10'0 0.0
2015-Mar-27 00:29N 29°48' E 122°10'0 0.0
2015-Mar-26 23:29N 29°48' E 122°10'0 0.0
2015-Mar-26 21:29N 29°48' E 122°10'0 0.0
2015-Mar-26 20:11N 29°48' E 122°10'0 0.0
2015-Mar-26 07:28N 29°48' E 122°10'0 0.0
2015-Mar-26 06:10N 29°48' E 122°10'0 0.0
2015-Mar-26 05:28N 29°48' E 122°10'0 0.0
2015-Mar-26 04:16N 29°48' E 122°10'0 0.0
2015-Mar-26 03:22N 29°48' E 122°10'0 0.0
2015-Mar-26 02:10N 29°48' E 122°10'0 0.0
2015-Mar-26 01:28N 29°48' E 122°10'0 0.0
2015-Mar-26 00:10N 29°48' E 122°10'0 0.0
2015-Mar-25 23:22N 29°48' E 122°10'0 0.0
2015-Mar-25 22:28N 29°48' E 122°10'0 0.0
2015-Mar-25 21:10N 29°48' E 122°10'0 0.0
2015-Mar-25 20:28N 29°48' E 122°10'0 0.0
2015-Mar-25 00:34N 29°48' E 122°10'0 0.0
2015-Mar-24 23:22N 29°48' E 122°10'0 0.0
2015-Mar-24 22:33N 29°48' E 122°10'0 0.0
2015-Mar-24 21:33N 29°48' E 122°10'0 0.0
2015-Mar-24 20:33N 29°48' E 122°10'0 0.0
2015-Mar-24 19:21N 29°48' E 122°10'0 0.0
2015-Mar-24 18:33N 29°48' E 122°10'0 0.0
2015-Mar-24 17:33N 29°48' E 122°10'0 0.0
2015-Mar-24 16:33N 29°48' E 122°10'0 0.0
2015-Mar-24 15:27N 29°48' E 122°10'0 0.0
2015-Mar-24 14:09N 29°48' E 122°10'0 0.0
2015-Mar-24 13:15N 29°48' E 122°10'0 0.0
2015-Mar-24 12:33N 29°48' E 122°10'0 0.0
2015-Mar-24 11:21N 29°48' E 122°10'0 0.0
2015-Mar-24 10:27N 29°48' E 122°10'0 0.0
2015-Mar-24 09:27N 29°48' E 122°10'0 0.0
2015-Mar-24 08:33N 29°48' E 122°10'0 0.0
2015-Mar-24 07:33N 29°48' E 122°10'0 0.0
2015-Mar-24 06:33N 29°48' E 122°10'0 0.0
2015-Mar-24 05:33N 29°48' E 122°10'0 0.0
2015-Mar-24 04:33N 29°48' E 122°10'0 0.0
2015-Mar-24 03:09N 29°48' E 122°10'0 0.0
2015-Mar-24 02:15N 29°48' E 122°10'0 0.0
2015-Mar-24 01:15N 29°48' E 122°10'0 0.0
2015-Mar-24 00:33N 29°48' E 122°10'0 0.0
2015-Mar-23 23:33N 29°48' E 122°10'0 0.0
2015-Mar-23 22:21N 29°48' E 122°10'0 0.0
2015-Mar-23 21:09N 29°48' E 122°10'0 0.0
2015-Mar-23 20:27N 29°48' E 122°10'0 0.0
2015-Mar-23 19:33N 29°48' E 122°10'0 0.0
2015-Mar-23 18:21N 29°48' E 122°10'0 0.0
2015-Mar-23 17:33N 29°48' E 122°10'0 0.0
2015-Mar-23 16:33N 29°48' E 122°10'0 0.0
2015-Mar-23 14:33N 29°48' E 122°10'0 0.0
2015-Mar-23 13:12N 29°48' E 122°10'0 0.0
2015-Mar-23 12:26N 29°48' E 122°10'0 0.0
2015-Mar-23 11:32N 29°48' E 122°10'0 0.0
2015-Mar-23 10:32N 29°48' E 122°10'0 0.0
2015-Mar-23 09:26N 29°48' E 122°10'0 0.0
2015-Mar-23 08:32N 29°48' E 122°10'0 0.0
2015-Mar-23 07:32N 29°48' E 122°10'0 0.0
2015-Mar-23 06:20N 29°48' E 122°10'0 0.0
2015-Mar-23 05:32N 29°48' E 122°10'0 0.0
2015-Mar-23 04:20N 29°48' E 122°10'0 0.2
2015-Mar-23 03:32N 29°48' E 122°09'3 2.6
2015-Mar-23 02:33N 29°47' E 122°07'  

Dump ship's entire track history